createdAt,value
2023-09-16T00:02:06.878Z,97915.78
2023-09-16T00:04:34.459Z,97916.57
2023-09-16T00:07:03.609Z,97913.48
2023-09-16T00:09:33.621Z,97920.55
2023-09-16T00:12:01.533Z,97911.81
2023-09-16T00:14:30.443Z,97916.56
2023-09-16T00:17:00.013Z,97913.45
2023-09-16T00:19:27.896Z,97915.81
2023-09-16T00:21:56.387Z,97917.84
2023-09-16T00:24:24.059Z,97915.30
2023-09-16T00:26:51.356Z,97916.67
2023-09-16T00:29:19.000Z,97912.80
2023-09-16T00:31:46.647Z,97915.54
2023-09-16T00:34:14.470Z,97918.48
2023-09-16T00:36:42.300Z,97922.39
2023-09-16T00:39:10.228Z,97917.63
2023-09-16T00:41:38.160Z,97914.24
2023-09-16T00:44:05.958Z,97915.72
2023-09-16T00:46:33.650Z,97915.58
2023-09-16T00:49:01.622Z,97914.72
2023-09-16T00:51:29.612Z,97911.12
2023-09-16T00:53:58.714Z,97916.91
2023-09-16T00:56:28.588Z,97914.44
2023-09-16T00:58:58.866Z,97913.16
2023-09-16T01:01:27.256Z,97921.89
2023-09-16T01:03:55.092Z,97912.59
2023-09-16T01:06:23.089Z,97920.58
2023-09-16T01:08:51.513Z,97915.92
2023-09-16T01:11:18.920Z,97918.49
2023-09-16T01:13:50.032Z,97917.57
2023-09-16T01:16:37.685Z,97915.25
2023-09-16T01:19:22.823Z,97914.33
2023-09-16T01:21:51.474Z,97914.95
2023-09-16T01:24:25.602Z,97918.00
2023-09-16T01:26:53.381Z,97916.46
2023-09-16T01:29:21.702Z,97916.60
2023-09-16T01:31:49.906Z,97918.17
2023-09-16T01:34:25.869Z,97921.30
2023-09-16T01:36:57.403Z,97927.12
2023-09-16T01:39:30.149Z,97925.33
2023-09-16T01:41:59.986Z,97924.34
2023-09-16T01:44:27.795Z,97925.27
2023-09-16T01:46:56.678Z,97920.73
2023-09-16T01:49:24.832Z,97929.30
2023-09-16T01:51:52.847Z,97924.98
2023-09-16T01:54:20.366Z,97923.75
2023-09-16T01:56:48.887Z,97930.77
2023-09-16T01:59:16.573Z,97924.62
2023-09-16T02:01:45.764Z,97931.85
2023-09-16T02:04:14.180Z,97934.52
2023-09-16T02:06:43.699Z,97935.23
2023-09-16T02:09:12.262Z,97939.84
2023-09-16T02:11:40.189Z,97939.77
2023-09-16T02:14:12.243Z,97941.34
2023-09-16T02:16:40.956Z,97939.39
2023-09-16T02:19:08.687Z,97940.05
2023-09-16T02:21:36.469Z,97942.28
2023-09-16T02:24:04.996Z,97936.30
2023-09-16T02:26:32.693Z,97943.60
2023-09-16T02:29:00.404Z,97940.86
2023-09-16T02:31:28.398Z,97942.23
2023-09-16T02:34:01.058Z,97941.06
2023-09-16T02:36:29.112Z,97943.81
2023-09-16T02:38:56.582Z,97941.65
2023-09-16T02:41:24.405Z,97948.29
2023-09-16T02:43:52.142Z,97942.23
2023-09-16T02:46:20.194Z,97939.41
2023-09-16T02:48:48.488Z,97943.08
2023-09-16T02:51:16.884Z,97944.81
2023-09-16T02:53:44.713Z,97942.80
2023-09-16T02:56:12.611Z,97943.30
2023-09-16T02:58:40.594Z,97948.12
2023-09-16T03:01:10.873Z,97953.75
2023-09-16T03:03:40.888Z,97961.52
2023-09-16T03:06:08.890Z,97952.28
2023-09-16T03:08:36.618Z,97958.68
2023-09-16T03:11:06.211Z,97956.31
2023-09-16T03:13:35.537Z,97962.37
2023-09-16T03:16:24.557Z,97956.31
2023-09-16T03:18:54.589Z,97955.59
2023-09-16T03:21:25.684Z,97962.55
2023-09-16T03:23:55.382Z,97961.81
2023-09-16T03:26:23.867Z,97964.63
2023-09-16T03:28:55.572Z,97969.98
2023-09-16T03:31:24.983Z,97957.86
2023-09-16T03:33:53.296Z,97959.89
2023-09-16T03:36:22.947Z,97957.80
2023-09-16T03:38:52.155Z,97963.20
2023-09-16T03:41:20.274Z,97963.41
2023-09-16T03:43:55.667Z,97967.52
2023-09-16T03:46:24.795Z,97965.94
2023-09-16T03:48:53.420Z,97969.84
2023-09-16T03:51:22.814Z,97972.13
2023-09-16T03:53:51.478Z,97969.89
2023-09-16T03:56:26.420Z,97975.88
2023-09-16T03:58:56.312Z,97972.06
2023-09-16T04:01:27.078Z,97976.45
2023-09-16T04:03:56.367Z,97978.75
2023-09-16T04:06:27.717Z,97982.20
2023-09-16T04:08:56.029Z,97980.59
2023-09-16T04:11:24.622Z,97986.80
2023-09-16T04:13:52.347Z,97984.77
2023-09-16T04:16:20.325Z,97980.95
2023-09-16T04:18:49.247Z,97989.66
2023-09-16T04:21:17.478Z,97983.03
2023-09-16T04:23:45.453Z,97987.80
2023-09-16T04:26:15.049Z,97988.88
2023-09-16T04:28:44.078Z,97986.89
2023-09-16T04:31:11.855Z,97982.94
2023-09-16T04:33:41.336Z,97989.36
2023-09-16T04:36:09.845Z,97995.66
2023-09-16T04:38:38.531Z,97985.64
2023-09-16T04:41:06.403Z,97992.41
2023-09-16T04:43:34.212Z,97997.25
2023-09-16T04:46:03.140Z,97999.69
2023-09-16T04:48:36.576Z,97998.97
2023-09-16T04:51:05.176Z,97998.81
2023-09-16T04:53:32.965Z,98000.70
2023-09-16T04:56:02.009Z,98001.77
2023-09-16T04:58:31.970Z,97996.94
2023-09-16T05:01:00.994Z,97994.41
2023-09-16T05:03:29.799Z,97996.56
2023-09-16T05:05:57.684Z,98002.05
2023-09-16T05:08:27.636Z,98002.05
2023-09-16T05:10:56.560Z,97997.56
2023-09-16T05:13:24.895Z,97995.27
2023-09-16T05:15:53.916Z,97997.29
2023-09-16T05:18:21.505Z,98000.66
2023-09-16T05:20:52.947Z,98001.09
2023-09-16T05:23:22.586Z,98002.75
2023-09-16T05:25:51.642Z,98008.51
2023-09-16T05:28:21.218Z,98003.19
2023-09-16T05:30:49.362Z,98009.22
2023-09-16T05:33:17.840Z,98011.52
2023-09-16T05:35:47.095Z,98004.61
2023-09-16T05:38:14.941Z,98005.19
2023-09-16T05:40:42.710Z,98007.94
2023-09-16T05:43:10.496Z,98005.78
2023-09-16T05:45:38.709Z,98008.06
2023-09-16T05:48:06.955Z,98007.41
2023-09-16T05:50:36.263Z,98006.16
2023-09-16T05:53:05.255Z,98011.98
2023-09-16T05:55:35.066Z,98006.55
2023-09-16T05:58:06.380Z,98007.01
2023-09-16T06:00:34.225Z,98007.84
2023-09-16T06:03:02.069Z,98007.55
2023-09-16T06:05:30.973Z,98011.14
2023-09-16T06:08:00.557Z,98006.05
2023-09-16T06:10:28.623Z,98007.31
2023-09-16T06:12:56.268Z,98010.91
2023-09-16T06:15:24.239Z,98014.54
2023-09-16T06:17:51.753Z,98013.41
2023-09-16T06:20:19.305Z,98010.53
2023-09-16T06:22:46.908Z,98014.99
2023-09-16T06:25:16.280Z,98015.12
2023-09-16T06:27:43.869Z,98013.88
2023-09-16T06:30:12.671Z,98014.41
2023-09-16T06:32:43.685Z,98015.86
2023-09-16T06:35:11.973Z,98018.27
2023-09-16T06:37:39.984Z,98020.27
2023-09-16T06:40:08.428Z,98017.55
2023-09-16T06:42:36.149Z,98022.94
2023-09-16T06:45:04.618Z,98020.06
2023-09-16T06:47:32.472Z,98029.34
2023-09-16T06:50:02.104Z,98020.50
2023-09-16T06:52:29.875Z,98023.84
2023-09-16T06:54:57.779Z,98026.79
2023-09-16T06:57:25.462Z,98032.53
2023-09-16T06:59:53.526Z,98036.03
2023-09-16T07:02:24.433Z,98034.45
2023-09-16T07:04:52.336Z,98034.85
2023-09-16T07:07:21.685Z,98037.21
2023-09-16T07:09:49.044Z,98036.58
2023-09-16T07:12:16.665Z,98037.34
2023-09-16T07:14:44.292Z,98043.19
2023-09-16T07:17:11.907Z,98035.28
2023-09-16T07:19:41.057Z,98047.83
2023-09-16T07:22:08.758Z,98035.84
2023-09-16T07:24:39.197Z,98037.57
2023-09-16T07:27:06.749Z,98046.41
2023-09-16T07:29:34.341Z,98045.67
2023-09-16T07:32:02.775Z,98040.64
2023-09-16T07:34:31.206Z,98052.63
2023-09-16T07:36:59.532Z,98044.34
2023-09-16T07:39:27.163Z,98045.28
2023-09-16T07:41:54.792Z,98043.46
2023-09-16T07:44:22.687Z,98047.87
2023-09-16T07:46:50.624Z,98044.20
2023-09-16T07:49:18.084Z,98050.13
2023-09-16T07:51:47.403Z,98043.27
2023-09-16T07:54:15.357Z,98040.91
2023-09-16T07:56:42.910Z,98039.75
2023-09-16T07:59:10.469Z,98039.84
2023-09-16T08:01:38.281Z,98038.52
2023-09-16T08:04:06.289Z,98034.42
2023-09-16T08:06:34.122Z,98033.48
2023-09-16T08:09:01.802Z,98028.58
2023-09-16T08:11:29.563Z,98026.87
2023-09-16T08:13:57.348Z,98033.59
2023-09-16T08:16:25.200Z,98028.88
2023-09-16T08:18:52.679Z,98026.89
2023-09-16T08:21:20.485Z,98031.41
2023-09-16T08:23:48.119Z,98024.62
2023-09-16T08:26:15.736Z,98032.64
2023-09-16T08:28:43.466Z,98029.45
2023-09-16T08:31:11.159Z,98031.16
2023-09-16T08:33:38.942Z,98029.16
2023-09-16T08:36:06.828Z,98027.09
2023-09-16T08:38:34.243Z,98027.20
2023-09-16T08:41:18.945Z,98022.36
2023-09-16T08:43:48.877Z,98021.52
2023-09-16T08:46:18.307Z,98015.05
2023-09-16T08:48:47.687Z,98016.97
2023-09-16T08:51:18.579Z,98017.91
2023-09-16T08:53:47.953Z,98019.77
2023-09-16T08:56:15.985Z,98022.28
2023-09-16T08:58:45.568Z,98015.03
2023-09-16T09:01:17.490Z,98018.10
2023-09-16T09:03:45.537Z,98012.27
2023-09-16T09:06:23.250Z,98015.89
2023-09-16T09:08:44.562Z,98017.73
2023-09-16T09:11:14.605Z,98012.47
2023-09-16T09:13:43.666Z,98014.02
2023-09-16T09:16:20.147Z,98018.31
2023-09-16T09:18:50.409Z,98011.91
2023-09-16T09:21:18.698Z,98022.02
2023-09-16T09:23:46.086Z,98024.35
2023-09-16T09:26:15.212Z,98026.48
2023-09-16T09:28:49.641Z,98024.27
2023-09-16T09:31:17.603Z,98024.35
2023-09-16T09:33:48.988Z,98026.48
2023-09-16T09:36:18.724Z,98018.10
2023-09-16T09:38:47.986Z,98021.74
2023-09-16T09:41:16.291Z,98016.88
2023-09-16T09:43:44.020Z,98019.55
2023-09-16T09:46:12.461Z,98007.17
2023-09-16T09:48:40.879Z,98010.13
2023-09-16T09:51:11.770Z,98009.57
2023-09-16T09:53:41.346Z,98011.19
2023-09-16T09:56:12.284Z,98019.80
2023-09-16T09:58:41.693Z,98007.22
2023-09-16T10:01:09.085Z,98004.52
2023-09-16T10:03:36.787Z,98009.05
2023-09-16T10:06:17.807Z,98002.02
2023-09-16T10:08:47.328Z,98002.76
2023-09-16T10:11:15.342Z,97995.66
2023-09-16T10:13:42.927Z,97995.84
2023-09-16T10:16:11.373Z,97989.73
2023-09-16T10:18:39.099Z,97995.31
2023-09-16T10:21:08.113Z,97993.53
2023-09-16T10:23:38.176Z,97989.77
2023-09-16T10:26:06.124Z,97986.39
2023-09-16T10:28:39.372Z,97997.41
2023-09-16T10:31:07.486Z,97996.02
2023-09-16T10:33:36.391Z,97998.52
2023-09-16T10:36:05.771Z,97994.11
2023-09-16T10:38:35.258Z,97990.50
2023-09-16T10:41:05.811Z,97988.74
2023-09-16T10:43:33.878Z,97975.44
2023-09-16T10:46:02.026Z,97983.17
2023-09-16T10:48:29.776Z,97985.08
2023-09-16T10:51:02.359Z,97977.06
2023-09-16T10:53:37.067Z,97975.05
2023-09-16T10:56:19.292Z,97980.63
2023-09-16T10:58:52.003Z,97971.22
2023-09-16T11:01:23.275Z,97971.38
2023-09-16T11:03:56.399Z,97972.62
2023-09-16T11:06:24.334Z,97974.83
2023-09-16T11:08:52.521Z,97973.49
2023-09-16T11:11:22.517Z,97969.50
2023-09-16T11:13:51.381Z,97973.36
2023-09-16T11:16:22.014Z,97969.69
2023-09-16T11:18:51.981Z,97967.22
2023-09-16T11:21:21.571Z,97964.35
2023-09-16T11:23:49.777Z,97970.84
2023-09-16T11:26:23.203Z,97959.44
2023-09-16T11:28:54.414Z,97967.66
2023-09-16T11:31:22.241Z,97963.03
2023-09-16T11:33:50.227Z,97960.52
2023-09-16T11:36:19.871Z,97955.18
2023-09-16T11:38:58.689Z,97957.98
2023-09-16T11:41:26.600Z,97953.27
2023-09-16T11:43:54.679Z,97954.72
2023-09-16T11:46:22.638Z,97957.02
2023-09-16T11:49:04.015Z,97952.18
2023-09-16T11:51:37.868Z,97954.23
2023-09-16T11:54:06.051Z,97955.49
2023-09-16T11:56:37.618Z,97959.31
2023-09-16T11:59:05.533Z,97953.20
2023-09-16T12:01:40.203Z,97952.96
2023-09-16T12:04:11.417Z,97952.06
2023-09-16T12:06:39.715Z,97945.64
2023-09-16T12:09:10.866Z,97949.06
2023-09-16T12:11:39.477Z,97946.19
2023-09-16T12:14:08.079Z,97946.16
2023-09-16T12:16:38.057Z,97947.67
2023-09-16T12:19:06.424Z,97940.23
2023-09-16T12:21:38.249Z,97936.04
2023-09-16T12:24:06.797Z,97936.83
2023-09-16T12:26:34.801Z,97941.59
2023-09-16T12:29:02.153Z,97936.90
2023-09-16T12:31:29.876Z,97929.52
2023-09-16T12:33:57.782Z,97930.16
2023-09-16T12:36:28.753Z,97929.05
2023-09-16T12:39:00.014Z,97933.34
2023-09-16T12:41:29.766Z,97921.78
2023-09-16T12:43:59.036Z,97918.57
2023-09-16T12:46:30.031Z,97923.19
2023-09-16T12:48:59.120Z,97914.69
2023-09-16T12:51:29.245Z,97915.08
2023-09-16T12:53:59.415Z,97913.45
2023-09-16T12:56:27.201Z,97910.82
2023-09-16T12:58:54.842Z,97921.53
2023-09-16T13:01:24.248Z,97912.52
2023-09-16T13:03:52.691Z,97914.18
2023-09-16T13:06:20.454Z,97908.58
2023-09-16T13:08:48.739Z,97899.48
2023-09-16T13:11:16.712Z,97902.20
2023-09-16T13:13:44.403Z,97898.93
2023-09-16T13:16:12.288Z,97911.96
2023-09-16T13:18:41.309Z,97907.89
2023-09-16T13:21:09.052Z,97902.89
2023-09-16T13:23:36.868Z,97913.38
2023-09-16T13:26:14.408Z,97916.34
2023-09-16T13:28:58.040Z,97918.92
2023-09-16T13:31:28.194Z,97916.30
2023-09-16T13:34:00.238Z,97919.77
2023-09-16T13:36:32.017Z,97914.72
2023-09-16T13:39:01.708Z,97918.95
2023-09-16T13:41:29.405Z,97921.97
2023-09-16T13:43:56.853Z,97920.12
2023-09-16T13:46:26.004Z,97925.72
2023-09-16T13:48:54.943Z,97922.23
2023-09-16T13:51:23.370Z,97918.95
2023-09-16T13:53:54.004Z,97923.16
2023-09-16T13:56:22.712Z,97921.80
2023-09-16T13:58:50.794Z,97927.41
2023-09-16T14:01:18.989Z,97923.88
2023-09-16T14:03:46.827Z,97918.60
2023-09-16T14:06:14.853Z,97924.58
2023-09-16T14:08:42.321Z,97922.05
2023-09-16T14:11:10.162Z,97925.58
2023-09-16T14:13:38.966Z,97928.50
2023-09-16T14:16:07.089Z,97927.53
2023-09-16T14:18:34.757Z,97922.22
2023-09-16T14:21:02.406Z,97925.26
2023-09-16T14:23:30.051Z,97929.45
2023-09-16T14:26:02.943Z,97933.09
2023-09-16T14:28:30.179Z,97940.05
2023-09-16T14:30:57.805Z,97938.34
2023-09-16T14:33:25.530Z,97945.88
2023-09-16T14:35:53.289Z,97952.05
2023-09-16T14:38:20.983Z,97950.33
2023-09-16T14:40:48.748Z,97953.34
2023-09-16T14:43:16.482Z,97952.58
2023-09-16T14:45:45.489Z,97946.88
2023-09-16T14:48:13.756Z,97947.49
2023-09-16T14:50:41.443Z,97950.27
2023-09-16T14:53:09.732Z,97945.34
2023-09-16T14:55:37.378Z,97947.48
2023-09-16T14:58:06.955Z,97950.47
2023-09-16T15:00:34.599Z,97953.61
2023-09-16T15:03:02.959Z,97950.67
2023-09-16T15:05:31.749Z,97953.05
2023-09-16T15:07:59.466Z,97951.67
2023-09-16T15:10:27.109Z,97956.02
2023-09-16T15:12:54.923Z,97962.92
2023-09-16T15:15:22.731Z,97957.80
2023-09-16T15:17:50.442Z,97957.02
2023-09-16T15:20:18.080Z,97964.12
2023-09-16T15:22:45.755Z,97964.94
2023-09-16T15:25:13.689Z,97963.93
2023-09-16T15:27:43.097Z,97966.69
2023-09-16T15:30:11.738Z,97968.27
2023-09-16T15:32:45.872Z,97965.72
2023-09-16T15:35:09.271Z,97973.00
2023-09-16T15:37:36.762Z,97971.84
2023-09-16T15:40:05.568Z,97974.00
2023-09-16T15:42:33.477Z,97974.41
2023-09-16T15:45:01.242Z,97978.33
2023-09-16T15:47:28.996Z,97971.23
2023-09-16T15:49:57.919Z,97961.57
2023-09-16T15:52:26.343Z,97965.72
2023-09-16T15:54:54.140Z,97969.07
2023-09-16T15:57:21.869Z,97969.48
2023-09-16T15:59:49.570Z,97968.88
2023-09-16T16:02:17.514Z,97970.45
2023-09-16T16:04:45.317Z,97974.80
2023-09-16T16:07:14.919Z,97967.49
2023-09-16T16:09:43.416Z,97973.23
2023-09-16T16:12:11.058Z,97964.16
2023-09-16T16:14:38.866Z,97971.44
2023-09-16T16:17:17.750Z,97968.30
2023-09-16T16:19:36.354Z,97963.52
2023-09-16T16:22:04.445Z,97965.09
2023-09-16T16:24:32.625Z,97961.16
2023-09-16T16:27:03.346Z,97960.94
2023-09-16T16:29:31.503Z,97961.75
2023-09-16T16:31:59.382Z,97963.91
2023-09-16T16:34:27.395Z,97961.73
2023-09-16T16:36:55.219Z,97963.70
2023-09-16T16:39:22.758Z,97962.71
2023-09-16T16:41:50.333Z,97966.65
2023-09-16T16:44:18.069Z,97962.50
2023-09-16T16:46:48.264Z,97967.81
2023-09-16T16:49:15.199Z,97965.64
2023-09-16T16:51:42.831Z,97961.09
2023-09-16T16:54:10.382Z,97965.41
2023-09-16T16:56:38.092Z,97975.86
2023-09-16T16:59:06.638Z,97972.90
2023-09-16T17:01:34.819Z,97971.68
2023-09-16T17:04:04.540Z,97976.80
2023-09-16T17:06:32.291Z,97976.95
2023-09-16T17:09:01.334Z,97981.64
2023-09-16T17:11:29.492Z,97985.76
2023-09-16T17:13:58.672Z,97988.30
2023-09-16T17:16:26.698Z,97995.77
2023-09-16T17:18:54.577Z,98000.09
2023-09-16T17:21:22.154Z,98007.92
2023-09-16T17:23:49.859Z,97999.23
2023-09-16T17:26:17.717Z,98014.39
2023-09-16T17:28:45.740Z,98013.59
2023-09-16T17:31:13.560Z,98015.73
2023-09-16T17:33:43.275Z,98014.91
2023-09-16T17:36:12.128Z,98020.80
2023-09-16T17:38:40.097Z,98021.55
2023-09-16T17:41:08.405Z,98023.50
2023-09-16T17:43:35.945Z,98023.89
2023-09-16T17:46:03.361Z,98025.83
2023-09-16T17:48:31.019Z,98032.89
2023-09-16T17:51:01.347Z,98028.14
2023-09-16T17:53:30.145Z,98033.05
2023-09-16T17:55:58.363Z,98031.25
2023-09-16T17:58:26.156Z,98034.99
2023-09-16T18:00:54.120Z,98035.95
2023-09-16T18:03:21.531Z,98034.93
2023-09-16T18:05:50.574Z,98039.00
2023-09-16T18:08:17.971Z,98036.21
2023-09-16T18:10:46.413Z,98037.95
2023-09-16T18:13:14.226Z,98039.88
2023-09-16T18:15:42.098Z,98039.25
2023-09-16T18:18:10.138Z,98041.61
2023-09-16T18:20:37.757Z,98043.73
2023-09-16T18:23:05.727Z,98045.87
2023-09-16T18:25:33.544Z,98047.83
2023-09-16T18:28:01.270Z,98039.73
2023-09-16T18:30:29.041Z,98050.34
2023-09-16T18:32:57.385Z,98051.53
2023-09-16T18:35:30.140Z,98055.23
2023-09-16T18:38:06.558Z,98053.66
2023-09-16T18:40:27.324Z,98053.22
2023-09-16T18:42:56.947Z,98052.44
2023-09-16T18:45:25.389Z,98051.25
2023-09-16T18:47:53.630Z,98051.02
2023-09-16T18:50:21.782Z,98052.00
2023-09-16T18:52:50.663Z,98049.41
2023-09-16T18:55:18.391Z,98053.72
2023-09-16T18:57:46.007Z,98054.47
2023-09-16T19:00:14.859Z,98058.98
2023-09-16T19:02:42.614Z,98054.23
2023-09-16T19:05:11.181Z,98057.77
2023-09-16T19:07:38.901Z,98052.06
2023-09-16T19:10:08.271Z,98054.19
2023-09-16T19:12:36.880Z,98060.28
2023-09-16T19:15:05.558Z,98065.59
2023-09-16T19:17:33.194Z,98064.56
2023-09-16T19:20:01.533Z,98062.56
2023-09-16T19:22:29.399Z,98062.16
2023-09-16T19:24:58.655Z,98067.47
2023-09-16T19:27:26.466Z,98063.49
2023-09-16T19:29:54.040Z,98068.00
2023-09-16T19:32:21.801Z,98071.70
2023-09-16T19:34:51.091Z,98068.00
2023-09-16T19:37:18.886Z,98072.72
2023-09-16T19:39:46.429Z,98065.45
2023-09-16T19:42:14.857Z,98069.78
2023-09-16T19:44:42.480Z,98070.57
2023-09-16T19:47:10.302Z,98061.96
2023-09-16T19:49:38.248Z,98072.58
2023-09-16T19:52:05.956Z,98071.41
2023-09-16T19:54:33.826Z,98071.59
2023-09-16T19:57:03.786Z,98072.33
2023-09-16T19:59:31.401Z,98071.70
2023-09-16T20:02:01.002Z,98065.36
2023-09-16T20:04:29.083Z,98071.38
2023-09-16T20:06:58.076Z,98069.38
2023-09-16T20:09:26.504Z,98073.83
2023-09-16T20:11:54.519Z,98071.83
2023-09-16T20:14:22.213Z,98076.48
2023-09-16T20:16:49.925Z,98075.65
2023-09-16T20:19:19.254Z,98077.20
2023-09-16T20:21:51.605Z,98073.28
2023-09-16T20:24:19.452Z,98075.25
2023-09-16T20:26:47.049Z,98078.00
2023-09-16T20:29:14.668Z,98075.58
2023-09-16T20:31:42.746Z,98082.55
2023-09-16T20:34:12.324Z,98084.67
2023-09-16T20:36:46.703Z,98085.64
2023-09-16T20:39:14.650Z,98090.50
2023-09-16T20:41:43.229Z,98087.48
2023-09-16T20:44:12.637Z,98086.27
2023-09-16T20:46:41.228Z,98088.41
2023-09-16T20:49:09.042Z,98094.43
2023-09-16T20:51:36.703Z,98090.25
2023-09-16T20:54:04.857Z,98093.15
2023-09-16T20:56:34.297Z,98091.13
2023-09-16T20:59:01.911Z,98097.39
2023-09-16T21:01:29.858Z,98087.92
2023-09-16T21:03:57.814Z,98088.71
2023-09-16T21:06:25.547Z,98085.91
2023-09-16T21:08:53.171Z,98090.20
2023-09-16T21:11:21.058Z,98081.11
2023-09-16T21:13:48.987Z,98085.97
2023-09-16T21:16:17.107Z,98083.36
2023-09-16T21:18:44.907Z,98084.88
2023-09-16T21:21:12.800Z,98086.84
2023-09-16T21:23:40.382Z,98081.48
2023-09-16T21:26:07.875Z,98084.82
2023-09-16T21:28:36.790Z,98088.77
2023-09-16T21:31:04.652Z,98088.42
2023-09-16T21:33:33.287Z,98091.02
2023-09-16T21:36:00.833Z,98086.90
2023-09-16T21:38:28.660Z,98081.41
2023-09-16T21:40:56.529Z,98084.53
2023-09-16T21:43:24.621Z,98082.13
2023-09-16T21:45:53.499Z,98086.40
2023-09-16T21:48:21.197Z,98087.39
2023-09-16T21:50:50.696Z,98087.39
2023-09-16T21:53:20.733Z,98084.82
2023-09-16T21:55:47.893Z,98088.87
2023-09-16T21:58:15.583Z,98085.08
2023-09-16T22:00:43.266Z,98078.36
2023-09-16T22:03:10.964Z,98080.45
2023-09-16T22:05:40.159Z,98087.06
2023-09-16T22:08:08.016Z,98080.71
2023-09-16T22:10:36.449Z,98078.92
2023-09-16T22:13:04.913Z,98085.56
2023-09-16T22:15:34.559Z,98085.87
2023-09-16T22:18:03.870Z,98088.72
2023-09-16T22:20:32.368Z,98089.00
2023-09-16T22:23:00.359Z,98086.36
2023-09-16T22:25:28.219Z,98080.32
2023-09-16T22:27:56.719Z,98088.80
2023-09-16T22:30:24.630Z,98085.25
2023-09-16T22:32:52.366Z,98080.20
2023-09-16T22:35:20.236Z,98084.59
2023-09-16T22:37:48.051Z,98085.82
2023-09-16T22:40:16.188Z,98088.07
2023-09-16T22:42:44.176Z,98088.00
2023-09-16T22:45:13.018Z,98088.71
2023-09-16T22:47:42.790Z,98090.45
2023-09-16T22:50:10.496Z,98086.84
2023-09-16T22:52:38.271Z,98091.95
2023-09-16T22:55:07.295Z,98091.95
2023-09-16T22:57:34.924Z,98093.33
2023-09-16T23:00:04.492Z,98093.77
2023-09-16T23:02:35.252Z,98096.73
2023-09-16T23:05:04.750Z,98092.11
2023-09-16T23:07:32.790Z,98093.97
2023-09-16T23:10:00.666Z,98096.37
2023-09-16T23:12:28.415Z,98094.55
2023-09-16T23:14:56.154Z,98091.90
2023-09-16T23:17:23.836Z,98086.92
2023-09-16T23:19:51.876Z,98090.38
2023-09-16T23:22:19.339Z,98093.17
2023-09-16T23:24:47.182Z,98086.61
2023-09-16T23:27:15.514Z,98082.58
2023-09-16T23:29:43.316Z,98083.50
2023-09-16T23:32:11.011Z,98086.03
2023-09-16T23:34:38.816Z,98089.48
2023-09-16T23:37:06.457Z,98091.57
2023-09-16T23:39:34.216Z,98090.28
2023-09-16T23:42:02.048Z,98096.05
2023-09-16T23:44:29.669Z,98097.55
2023-09-16T23:46:57.633Z,98100.08
2023-09-16T23:49:25.713Z,98094.06
2023-09-16T23:51:53.177Z,98092.77
2023-09-16T23:54:20.948Z,98090.15
2023-09-16T23:56:48.883Z,98101.27
2023-09-16T23:59:17.269Z,98091.92
